createdAt,value
2023-04-21T00:00:08.506Z,38.58
2023-04-21T00:01:07.545Z,38.54
2023-04-21T00:02:08.619Z,38.54
2023-04-21T00:03:08.823Z,38.54
2023-04-21T00:04:07.861Z,38.58
2023-04-21T00:05:08.803Z,38.57
2023-04-21T00:06:07.761Z,38.52
2023-04-21T00:07:07.779Z,38.56
2023-04-21T00:08:08.806Z,38.54
2023-04-21T00:09:08.891Z,38.53
2023-04-21T00:10:08.884Z,38.53
2023-04-21T00:11:07.916Z,38.51
2023-04-21T00:12:08.958Z,38.56
2023-04-21T00:13:08.987Z,38.53
2023-04-21T00:14:09.014Z,38.54
2023-04-21T00:15:08.059Z,38.54
2023-04-21T00:16:09.157Z,38.49
2023-04-21T00:17:09.115Z,38.55
2023-04-21T00:18:09.194Z,38.54
2023-04-21T00:19:08.535Z,38.50
2023-04-21T00:20:08.236Z,38.52
2023-04-21T00:21:08.251Z,38.51
2023-04-21T00:22:08.292Z,38.56
2023-04-21T00:23:09.316Z,38.53
2023-04-21T00:24:08.371Z,38.49
2023-04-21T00:25:09.435Z,38.50
2023-04-21T00:26:09.433Z,38.56
2023-04-21T00:27:09.464Z,38.54
2023-04-21T00:28:09.515Z,38.51
2023-04-21T00:29:09.564Z,38.47
2023-04-21T00:30:09.574Z,38.54
2023-04-21T00:31:08.673Z,38.49
2023-04-21T00:32:08.656Z,38.48
2023-04-21T00:33:09.696Z,38.55
2023-04-21T00:34:09.719Z,38.55
2023-04-21T00:35:08.756Z,38.49
2023-04-21T00:36:09.802Z,38.50
2023-04-21T00:37:09.828Z,38.55
2023-04-21T00:38:08.886Z,38.53
2023-04-21T00:39:09.908Z,38.49
2023-04-21T00:40:09.967Z,38.53
2023-04-21T00:41:09.020Z,38.50
2023-04-21T00:42:09.031Z,38.48
2023-04-21T00:43:10.070Z,38.55
2023-04-21T00:44:10.094Z,38.46
2023-04-21T00:45:09.153Z,38.49
2023-04-21T00:46:10.199Z,38.47
2023-04-21T00:47:09.269Z,38.51
2023-04-21T00:48:09.340Z,38.49
2023-04-21T00:49:10.295Z,38.44
2023-04-21T00:50:09.343Z,38.48
2023-04-21T00:51:09.364Z,38.47
2023-04-21T00:52:10.405Z,38.44
2023-04-21T00:53:10.477Z,38.49
2023-04-21T00:54:10.480Z,38.46
2023-04-21T00:55:09.527Z,38.52
2023-04-21T00:56:10.557Z,38.44
2023-04-21T00:57:09.644Z,38.47
2023-04-21T00:58:09.642Z,38.46
2023-04-21T00:59:09.687Z,38.44
2023-04-21T01:00:09.737Z,38.44
2023-04-21T01:01:09.818Z,38.46
2023-04-21T01:02:10.918Z,38.45
2023-04-21T01:03:10.001Z,38.40
2023-04-21T01:04:10.016Z,38.44
2023-04-21T01:05:10.926Z,38.45
2023-04-21T01:06:10.980Z,38.52
2023-04-21T01:07:11.027Z,38.45
2023-04-21T01:08:10.043Z,38.48
2023-04-21T01:09:11.105Z,38.44
2023-04-21T01:10:10.137Z,38.45
2023-04-21T01:11:10.188Z,38.42
2023-04-21T01:12:11.228Z,38.42
2023-04-21T01:13:10.289Z,38.43
2023-04-21T01:14:10.316Z,38.40
2023-04-21T01:15:10.353Z,38.49
2023-04-21T01:16:11.413Z,38.46
2023-04-21T01:17:11.464Z,38.45
2023-04-21T01:18:10.610Z,38.44
2023-04-21T01:19:10.569Z,38.38
2023-04-21T01:20:11.599Z,38.40
2023-04-21T01:21:11.648Z,38.44
2023-04-21T01:22:11.692Z,38.44
2023-04-21T01:23:10.736Z,38.43
2023-04-21T01:24:11.789Z,38.40
2023-04-21T01:25:11.832Z,38.46
2023-04-21T01:26:10.871Z,38.44
2023-04-21T01:27:11.910Z,38.41
2023-04-21T01:28:10.953Z,38.42
2023-04-21T01:29:12.032Z,38.43
2023-04-21T01:30:12.055Z,38.44
2023-04-21T01:31:12.111Z,38.41
2023-04-21T01:32:11.196Z,38.44
2023-04-21T01:33:12.251Z,38.42
2023-04-21T01:34:12.242Z,38.37
2023-04-21T01:35:11.321Z,38.42
2023-04-21T01:36:12.353Z,38.40
2023-04-21T01:37:11.406Z,38.41
2023-04-21T01:38:11.446Z,38.41
2023-04-21T01:39:11.484Z,38.41
2023-04-21T01:40:12.520Z,38.39
2023-04-21T01:41:11.602Z,38.44
2023-04-21T01:42:12.625Z,38.40
2023-04-21T01:43:11.668Z,38.34
2023-04-21T01:44:11.703Z,38.44
2023-04-21T01:45:12.797Z,38.39
2023-04-21T01:46:12.894Z,38.36
2023-04-21T01:47:12.849Z,38.39
2023-04-21T01:48:12.930Z,38.42
2023-04-21T01:49:11.979Z,38.37
2023-04-21T01:50:13.023Z,38.45
2023-04-21T01:51:12.049Z,38.32
2023-04-21T01:52:13.111Z,38.38
2023-04-21T01:53:12.141Z,38.41
2023-04-21T01:54:13.217Z,38.38
2023-04-21T01:55:13.237Z,38.39
2023-04-21T01:56:12.291Z,38.38
2023-04-21T01:57:13.371Z,38.37
2023-04-21T01:58:13.376Z,38.37
2023-04-21T01:59:13.441Z,38.38
2023-04-21T02:00:13.501Z,38.38
2023-04-21T02:01:13.582Z,38.37
2023-04-21T02:02:12.647Z,38.35
2023-04-21T02:03:12.737Z,38.40
2023-04-21T02:04:13.893Z,38.39
2023-04-21T02:05:12.751Z,38.39
2023-04-21T02:06:13.792Z,38.37
2023-04-21T02:07:13.836Z,38.39
2023-04-21T02:08:13.907Z,38.34
2023-04-21T02:09:13.998Z,38.34
2023-04-21T02:10:14.019Z,38.34
2023-04-21T02:11:14.049Z,38.35
2023-04-21T02:12:13.096Z,38.35
2023-04-21T02:13:13.143Z,38.38
2023-04-21T02:14:14.215Z,38.35
2023-04-21T02:15:13.259Z,38.33
2023-04-21T02:16:14.586Z,38.34
2023-04-21T02:17:14.401Z,38.32
2023-04-21T02:18:14.460Z,38.35
2023-04-21T02:19:14.483Z,38.35
2023-04-21T02:20:13.533Z,38.36
2023-04-21T02:21:14.556Z,38.34
2023-04-21T02:22:13.628Z,38.39
2023-04-21T02:23:13.667Z,38.39
2023-04-21T02:24:13.709Z,38.33
2023-04-21T02:25:14.772Z,38.35
2023-04-21T02:26:13.813Z,38.33
2023-04-21T02:27:14.894Z,38.33
2023-04-21T02:28:13.929Z,38.34
2023-04-21T02:29:14.989Z,38.35
2023-04-21T02:30:15.050Z,38.36
2023-04-21T02:31:15.128Z,38.32
2023-04-21T02:32:22.109Z,38.35
2023-04-21T02:33:15.194Z,38.32
2023-04-21T02:34:15.140Z,38.35
2023-04-21T02:35:14.147Z,38.35
2023-04-21T02:36:15.130Z,38.31
2023-04-21T02:37:15.122Z,38.35
2023-04-21T02:38:15.121Z,38.35
2023-04-21T02:39:15.104Z,38.35
2023-04-21T02:40:15.134Z,38.37
2023-04-21T02:41:15.106Z,38.33
2023-04-21T02:42:14.114Z,38.30
2023-04-21T02:43:15.085Z,38.29
2023-04-21T02:44:15.116Z,38.32
2023-04-21T02:45:14.169Z,38.35
2023-04-21T02:46:15.256Z,38.35
2023-04-21T02:47:15.271Z,38.37
2023-04-21T02:48:15.337Z,38.27
2023-04-21T02:49:14.411Z,38.38
2023-04-21T02:50:15.436Z,38.33
2023-04-21T02:51:15.504Z,38.38
2023-04-21T02:52:15.574Z,38.29
2023-04-21T02:53:15.617Z,38.30
2023-04-21T02:54:14.687Z,38.32
2023-04-21T02:55:15.749Z,38.27
2023-04-21T02:56:14.807Z,38.32
2023-04-21T02:57:15.848Z,38.33
2023-04-21T02:58:15.919Z,38.33
2023-04-21T02:59:15.965Z,38.32
2023-04-21T03:00:16.036Z,38.35
2023-04-21T03:01:16.151Z,38.31
2023-04-21T03:02:15.203Z,38.32
2023-04-21T03:03:16.376Z,38.29
2023-04-21T03:04:16.426Z,38.32
2023-04-21T03:05:16.362Z,38.27
2023-04-21T03:06:16.414Z,38.26
2023-04-21T03:07:16.451Z,38.32
2023-04-21T03:08:16.513Z,38.24
2023-04-21T03:09:16.604Z,38.23
2023-04-21T03:10:15.631Z,38.26
2023-04-21T03:11:15.690Z,38.26
2023-04-21T03:12:16.748Z,38.21
2023-04-21T03:13:15.793Z,38.25
2023-04-21T03:14:16.856Z,38.18
2023-04-21T03:15:15.960Z,38.20
2023-04-21T03:16:16.997Z,38.21
2023-04-21T03:17:16.029Z,38.26
2023-04-21T03:18:16.104Z,38.19
2023-04-21T03:19:17.291Z,38.23
2023-04-21T03:20:16.270Z,38.17
2023-04-21T03:21:16.471Z,38.21
2023-04-21T03:22:16.296Z,38.17
2023-04-21T03:23:17.357Z,38.17
2023-04-21T03:24:17.426Z,38.20
2023-04-21T03:25:17.509Z,38.13
2023-04-21T03:26:16.729Z,38.16
2023-04-21T03:27:16.567Z,38.16
2023-04-21T03:28:17.603Z,38.19
2023-04-21T03:29:17.954Z,38.12
2023-04-21T03:30:16.715Z,38.10
2023-04-21T03:31:17.757Z,38.05
2023-04-21T03:32:16.908Z,38.06
2023-04-21T03:33:17.954Z,38.09
2023-04-21T03:34:17.911Z,38.11
2023-04-21T03:35:16.975Z,38.07
2023-04-21T03:36:18.016Z,38.04
2023-04-21T03:37:18.076Z,38.02
2023-04-21T03:38:17.123Z,37.99
2023-04-21T03:39:20.033Z,37.97
2023-04-21T03:40:18.166Z,38.02
2023-04-21T03:41:17.136Z,37.99
2023-04-21T03:42:17.129Z,37.96
2023-04-21T03:43:17.123Z,37.95
2023-04-21T03:44:17.108Z,37.90
2023-04-21T03:45:17.114Z,37.87
2023-04-21T03:46:18.146Z,37.87
2023-04-21T03:47:17.119Z,37.87
2023-04-21T03:48:18.087Z,37.87
2023-04-21T03:49:18.169Z,37.82
2023-04-21T03:50:17.075Z,37.84
2023-04-21T03:51:18.070Z,37.84
2023-04-21T03:52:18.079Z,37.82
2023-04-21T03:53:17.083Z,37.81
2023-04-21T03:54:18.042Z,37.85
2023-04-21T03:55:18.042Z,37.75
2023-04-21T03:56:17.025Z,37.79
2023-04-21T03:57:17.029Z,37.78
2023-04-21T03:58:18.010Z,37.80
2023-04-21T03:59:18.269Z,37.75
2023-04-21T04:00:18.000Z,37.73
2023-04-21T04:01:17.031Z,37.78
2023-04-21T04:02:18.044Z,37.78
2023-04-21T04:03:19.174Z,37.71
2023-04-21T04:04:17.341Z,37.74
2023-04-21T04:05:18.024Z,37.76
2023-04-21T04:06:17.977Z,37.74
2023-04-21T04:07:16.967Z,37.74
2023-04-21T04:08:17.991Z,37.73
2023-04-21T04:09:17.106Z,37.74
2023-04-21T04:10:17.995Z,37.71
2023-04-21T04:11:16.964Z,37.72
2023-04-21T04:12:17.940Z,37.73
2023-04-21T04:13:16.926Z,37.72
2023-04-21T04:14:16.912Z,37.69
2023-04-21T04:15:17.927Z,37.70
2023-04-21T04:16:17.960Z,37.67
2023-04-21T04:17:16.896Z,37.66
2023-04-21T04:18:17.898Z,37.65
2023-04-21T04:19:18.227Z,37.68
2023-04-21T04:20:17.888Z,37.69
2023-04-21T04:21:17.897Z,37.66
2023-04-21T04:22:16.871Z,37.69
2023-04-21T04:23:17.885Z,37.70
2023-04-21T04:24:17.859Z,37.68
2023-04-21T04:25:16.968Z,37.65
2023-04-21T04:26:17.878Z,37.64
2023-04-21T04:27:17.853Z,37.69
2023-04-21T04:28:16.840Z,37.64
2023-04-21T04:29:18.130Z,37.66
2023-04-21T04:30:16.833Z,37.65
2023-04-21T04:31:16.854Z,37.65
2023-04-21T04:32:17.821Z,37.65
2023-04-21T04:33:16.818Z,37.60
2023-04-21T04:34:16.792Z,37.63
2023-04-21T04:35:17.796Z,37.65
2023-04-21T04:36:17.840Z,37.64
2023-04-21T04:37:17.882Z,37.65
2023-04-21T04:38:17.922Z,37.64
2023-04-21T04:39:18.157Z,37.65
2023-04-21T04:40:18.010Z,37.63
2023-04-21T04:41:17.087Z,37.63
2023-04-21T04:42:17.093Z,37.63
2023-04-21T04:43:18.137Z,37.63
2023-04-21T04:44:18.614Z,37.63
2023-04-21T04:45:17.209Z,37.63
2023-04-21T04:46:18.271Z,37.64
2023-04-21T04:47:18.303Z,37.60
2023-04-21T04:48:17.346Z,37.63
2023-04-21T04:49:18.360Z,37.61
2023-04-21T04:50:17.399Z,37.60
2023-04-21T04:51:18.454Z,37.60
2023-04-21T04:52:17.468Z,37.59
2023-04-21T04:53:17.530Z,37.59
2023-04-21T04:54:18.897Z,37.59
2023-04-21T04:55:17.599Z,37.62
2023-04-21T04:56:17.668Z,37.55
2023-04-21T04:57:18.737Z,37.57
2023-04-21T04:58:17.737Z,37.55
2023-04-21T04:59:18.793Z,37.58
2023-04-21T05:00:18.830Z,37.55
2023-04-21T05:01:17.979Z,37.54
2023-04-21T05:02:19.179Z,37.58
2023-04-21T05:03:19.136Z,37.59
2023-04-21T05:04:18.204Z,37.58
2023-04-21T05:05:19.028Z,37.56
2023-04-21T05:06:19.069Z,37.55
2023-04-21T05:07:19.218Z,37.58
2023-04-21T05:08:19.162Z,37.55
2023-04-21T05:09:18.182Z,37.55
2023-04-21T05:10:19.216Z,37.51
2023-04-21T05:11:19.259Z,37.57
2023-04-21T05:12:18.297Z,37.54
2023-04-21T05:13:19.685Z,37.54
2023-04-21T05:14:19.509Z,37.57
2023-04-21T05:15:19.410Z,37.62
2023-04-21T05:16:18.465Z,37.54
2023-04-21T05:17:18.497Z,37.56
2023-04-21T05:18:18.516Z,37.57
2023-04-21T05:19:19.556Z,37.56
2023-04-21T05:20:18.614Z,37.62
2023-04-21T05:21:18.646Z,37.57
2023-04-21T05:22:19.677Z,37.56
2023-04-21T05:23:18.709Z,37.54
2023-04-21T05:24:19.909Z,37.53
2023-04-21T05:25:19.784Z,37.54
2023-04-21T05:26:19.817Z,37.56
2023-04-21T05:27:18.854Z,37.64
2023-04-21T05:28:19.876Z,37.63
2023-04-21T05:29:18.948Z,37.67
2023-04-21T05:30:19.953Z,37.64
2023-04-21T05:31:20.010Z,37.63
2023-04-21T05:32:19.106Z,37.64
2023-04-21T05:33:19.123Z,37.61
2023-04-21T05:34:19.267Z,37.67
2023-04-21T05:35:19.112Z,37.66
2023-04-21T05:36:20.176Z,37.73
2023-04-21T05:37:20.193Z,37.75
2023-04-21T05:38:20.225Z,37.83
2023-04-21T05:39:20.258Z,37.85
2023-04-21T05:40:20.269Z,37.79
2023-04-21T05:41:20.317Z,37.83
2023-04-21T05:42:19.396Z,37.88
2023-04-21T05:43:19.365Z,37.88
2023-04-21T05:44:19.724Z,37.78
2023-04-21T05:45:19.433Z,37.77
2023-04-21T05:46:19.448Z,37.76
2023-04-21T05:47:20.513Z,37.67
2023-04-21T05:48:19.751Z,37.61
2023-04-21T05:49:20.515Z,37.57
2023-04-21T05:50:20.534Z,37.71
2023-04-21T05:51:19.587Z,37.56
2023-04-21T05:52:19.614Z,36.69
2023-04-21T05:53:20.668Z,36.69
2023-04-21T05:54:19.886Z,37.21
2023-04-21T05:55:19.748Z,37.49
2023-04-21T05:56:19.829Z,37.63
2023-04-21T05:57:19.860Z,37.78
2023-04-21T05:58:20.890Z,38.11
2023-04-21T05:59:19.936Z,38.14
2023-04-21T06:00:21.018Z,38.17
2023-04-21T06:01:21.105Z,38.24
2023-04-21T06:02:20.114Z,38.23
2023-04-21T06:03:21.158Z,38.26
2023-04-21T06:04:21.491Z,38.20
2023-04-21T06:05:21.124Z,38.11
2023-04-21T06:06:20.262Z,38.11
2023-04-21T06:07:21.144Z,38.05
2023-04-21T06:08:21.141Z,38.04
2023-04-21T06:09:21.155Z,38.05
2023-04-21T06:10:20.171Z,37.97
2023-04-21T06:11:21.203Z,38.00
2023-04-21T06:12:21.196Z,37.92
2023-04-21T06:13:20.229Z,37.97
2023-04-21T06:14:21.347Z,37.90
2023-04-21T06:15:21.268Z,37.87
2023-04-21T06:16:21.316Z,37.84
2023-04-21T06:17:20.296Z,37.79
2023-04-21T06:18:20.293Z,37.81
2023-04-21T06:19:21.318Z,37.73
2023-04-21T06:20:21.353Z,37.71
2023-04-21T06:21:21.369Z,37.70
2023-04-21T06:22:21.362Z,37.65
2023-04-21T06:23:21.386Z,37.62
2023-04-21T06:24:21.547Z,37.63
2023-04-21T06:25:21.427Z,37.67
2023-04-21T06:26:20.440Z,37.63
2023-04-21T06:27:21.457Z,37.64
2023-04-21T06:28:21.464Z,37.64
2023-04-21T06:29:21.489Z,37.54
2023-04-21T06:30:21.511Z,37.56
2023-04-21T06:31:21.544Z,37.61
2023-04-21T06:32:20.553Z,37.59
2023-04-21T06:33:21.570Z,37.57
2023-04-21T06:34:20.692Z,37.51
2023-04-21T06:35:21.563Z,37.49
2023-04-21T06:36:21.571Z,37.44
2023-04-21T06:37:21.585Z,37.43
2023-04-21T06:38:21.584Z,37.44
2023-04-21T06:39:21.615Z,37.39
2023-04-21T06:40:20.617Z,37.39
2023-04-21T06:41:22.228Z,37.41
2023-04-21T06:42:21.620Z,37.36
2023-04-21T06:43:21.608Z,37.38
2023-04-21T06:44:20.765Z,37.32
2023-04-21T06:45:21.605Z,37.37
2023-04-21T06:46:20.644Z,37.30
2023-04-21T06:47:22.779Z,37.27
2023-04-21T06:48:20.579Z,37.25
2023-04-21T06:49:21.989Z,37.26
2023-04-21T06:50:20.566Z,37.25
2023-04-21T06:51:21.571Z,37.27
2023-04-21T06:52:20.554Z,37.23
2023-04-21T06:53:21.549Z,37.20
2023-04-21T06:54:20.543Z,37.15
2023-04-21T06:55:21.541Z,37.23
2023-04-21T06:56:21.612Z,37.18
2023-04-21T06:57:20.597Z,37.10
2023-04-21T06:58:21.474Z,37.12
2023-04-21T06:59:20.918Z,37.10
2023-04-21T07:00:21.696Z,37.05
2023-04-21T07:01:21.618Z,37.00
2023-04-21T07:02:21.667Z,37.05
2023-04-21T07:03:20.771Z,36.97
2023-04-21T07:04:21.709Z,36.99
2023-04-21T07:05:20.662Z,36.99
2023-04-21T07:06:21.656Z,36.96
2023-04-21T07:07:21.667Z,37.04
2023-04-21T07:08:21.672Z,36.95
2023-04-21T07:09:20.902Z,36.95
2023-04-21T07:10:21.705Z,36.95
2023-04-21T07:11:21.711Z,37.01
2023-04-21T07:12:21.716Z,36.94
2023-04-21T07:13:21.761Z,37.05
2023-04-21T07:14:21.745Z,36.98
2023-04-21T07:15:21.774Z,36.94
2023-04-21T07:16:20.840Z,37.02
2023-04-21T07:17:21.788Z,37.01
2023-04-21T07:18:21.791Z,37.03
2023-04-21T07:19:21.913Z,37.02
2023-04-21T07:20:20.823Z,36.99
2023-04-21T07:21:20.880Z,37.01
2023-04-21T07:22:20.818Z,36.99
2023-04-21T07:23:21.838Z,37.00
2023-04-21T07:24:21.842Z,37.02
2023-04-21T07:25:21.856Z,36.99
2023-04-21T07:26:20.890Z,36.96
2023-04-21T07:27:21.870Z,37.01
2023-04-21T07:28:21.912Z,36.98
2023-04-21T07:29:21.909Z,36.98
2023-04-21T07:30:21.905Z,36.96
2023-04-21T07:31:20.998Z,36.99
2023-04-21T07:32:21.024Z,36.93
2023-04-21T07:33:20.911Z,36.93
2023-04-21T07:34:21.931Z,36.95
2023-04-21T07:35:20.936Z,36.93
2023-04-21T07:36:21.978Z,36.90
2023-04-21T07:37:22.880Z,36.88
2023-04-21T07:38:22.062Z,36.85
2023-04-21T07:39:22.505Z,36.80
2023-04-21T07:40:21.077Z,36.77
2023-04-21T07:41:22.398Z,36.80
2023-04-21T07:42:21.082Z,36.75
2023-04-21T07:43:22.057Z,36.74
2023-04-21T07:44:22.057Z,36.69
2023-04-21T07:45:22.075Z,36.72
2023-04-21T07:46:22.142Z,36.73
2023-04-21T07:47:22.150Z,36.71
2023-04-21T07:48:22.066Z,36.87
2023-04-21T07:49:22.277Z,36.48
2023-04-21T07:50:22.108Z,37.11
2023-04-21T07:51:22.229Z,37.09
2023-04-21T07:52:21.113Z,37.37
2023-04-21T07:53:21.134Z,37.45
2023-04-21T07:54:21.142Z,37.36
2023-04-21T07:55:22.260Z,37.37
2023-04-21T07:56:21.190Z,37.29
2023-04-21T07:57:22.239Z,37.27
2023-04-21T07:58:21.320Z,37.41
2023-04-21T07:59:21.491Z,37.43
2023-04-21T08:00:21.435Z,37.41
2023-04-21T08:01:21.609Z,37.42
2023-04-21T08:02:22.663Z,37.47
2023-04-21T08:03:24.470Z,37.37
2023-04-21T08:04:23.000Z,37.48
2023-04-21T08:05:22.649Z,37.50
2023-04-21T08:06:22.610Z,37.47
2023-04-21T08:07:21.776Z,37.52
2023-04-21T08:08:22.523Z,37.54
2023-04-21T08:09:22.824Z,37.61
2023-04-21T08:10:22.515Z,37.58
2023-04-21T08:11:22.548Z,37.63
2023-04-21T08:12:22.510Z,37.58
2023-04-21T08:13:21.528Z,37.66
2023-04-21T08:14:21.678Z,37.77
2023-04-21T08:15:21.474Z,37.91
2023-04-21T08:16:22.509Z,37.97
2023-04-21T08:17:22.533Z,37.96
2023-04-21T08:18:22.886Z,38.06
2023-04-21T08:19:22.728Z,38.11
2023-04-21T08:20:21.494Z,38.18
2023-04-21T08:21:21.709Z,38.24
2023-04-21T08:22:22.488Z,38.29
2023-04-21T08:23:22.499Z,38.34
2023-04-21T08:24:22.819Z,38.26
2023-04-21T08:25:22.449Z,38.28
2023-04-21T08:26:22.424Z,38.28
2023-04-21T08:27:21.398Z,38.37
2023-04-21T08:28:22.397Z,38.38
2023-04-21T08:29:22.375Z,38.59
2023-04-21T08:30:22.404Z,38.56
2023-04-21T08:31:22.439Z,38.64
2023-04-21T08:32:22.443Z,38.77
2023-04-21T08:33:22.444Z,38.70
2023-04-21T08:34:24.280Z,38.79
2023-04-21T08:35:22.375Z,38.82
2023-04-21T08:36:29.476Z,38.81
2023-04-21T08:37:22.362Z,38.83
2023-04-21T08:38:22.316Z,39.04
2023-04-21T08:39:21.593Z,39.20
2023-04-21T08:40:22.352Z,39.05
2023-04-21T08:41:21.325Z,39.08
2023-04-21T08:42:21.635Z,39.20
2023-04-21T08:43:21.296Z,39.14
2023-04-21T08:44:22.371Z,39.18
2023-04-21T08:45:22.260Z,39.08
2023-04-21T08:46:22.385Z,38.98
2023-04-21T08:47:22.305Z,38.66
2023-04-21T08:48:22.283Z,37.67
2023-04-21T08:49:22.393Z,38.30
2023-04-21T08:50:21.359Z,38.24
2023-04-21T08:51:22.264Z,37.19
2023-04-21T08:52:21.214Z,37.34
2023-04-21T08:53:22.231Z,35.61
2023-04-21T08:54:21.197Z,35.76
2023-04-21T08:55:22.203Z,35.28
2023-04-21T08:56:22.184Z,35.27
2023-04-21T08:57:22.790Z,35.82
2023-04-21T08:58:21.202Z,36.25
2023-04-21T08:59:21.471Z,36.66
2023-04-21T09:00:22.175Z,37.02
2023-04-21T09:01:22.267Z,37.07
2023-04-21T09:02:22.274Z,37.34
2023-04-21T09:03:25.899Z,37.51
2023-04-21T09:04:22.246Z,37.64
2023-04-21T09:05:22.263Z,37.75
2023-04-21T09:06:22.386Z,37.77
2023-04-21T09:07:21.114Z,37.83
2023-04-21T09:08:22.137Z,37.95
2023-04-21T09:09:21.247Z,37.91
2023-04-21T09:10:21.093Z,38.01
2023-04-21T09:11:21.081Z,37.88
2023-04-21T09:12:22.088Z,38.07
2023-04-21T09:13:21.101Z,38.20
2023-04-21T09:14:22.054Z,38.11
2023-04-21T09:15:21.047Z,38.09
2023-04-21T09:16:21.251Z,38.13
2023-04-21T09:17:22.075Z,38.29
2023-04-21T09:18:22.016Z,38.05
2023-04-21T09:19:22.292Z,38.26
2023-04-21T09:20:21.078Z,38.27
2023-04-21T09:21:21.112Z,38.47
2023-04-21T09:22:22.133Z,38.31
2023-04-21T09:23:22.207Z,38.44
2023-04-21T09:24:22.241Z,38.49
2023-04-21T09:25:21.303Z,38.43
2023-04-21T09:26:22.336Z,38.65
2023-04-21T09:27:22.408Z,38.80
2023-04-21T09:28:22.449Z,38.73
2023-04-21T09:29:22.588Z,38.74
2023-04-21T09:30:21.568Z,38.93
2023-04-21T09:31:21.659Z,38.98
2023-04-21T09:32:22.721Z,38.86
2023-04-21T09:33:30.642Z,38.95
2023-04-21T09:34:22.735Z,38.95
2023-04-21T09:35:22.717Z,39.13
2023-04-21T09:36:22.709Z,39.15
2023-04-21T09:37:21.712Z,39.15
2023-04-21T09:38:22.709Z,39.28
2023-04-21T09:39:38.223Z,39.32
2023-04-21T09:40:22.742Z,39.35
2023-04-21T09:41:22.664Z,39.45
2023-04-21T09:42:21.756Z,39.73
2023-04-21T09:43:22.651Z,39.62
2023-04-21T09:44:23.677Z,39.64
2023-04-21T09:45:38.971Z,39.76
2023-04-21T09:46:22.722Z,40.02
2023-04-21T09:47:21.711Z,39.92
2023-04-21T09:48:22.788Z,36.47
2023-04-21T09:49:22.625Z,36.38
2023-04-21T09:50:41.839Z,36.16
2023-04-21T09:51:35.209Z,36.28
2023-04-21T09:52:22.683Z,36.41
2023-04-21T09:53:22.625Z,37.21
2023-04-21T09:55:21.571Z,37.37
2023-04-21T09:56:22.551Z,37.20
2023-04-21T09:57:21.625Z,37.21
2023-04-21T09:58:21.543Z,37.21
2023-04-21T09:59:23.650Z,37.17
2023-04-21T10:00:22.545Z,37.13
2023-04-21T10:01:21.676Z,37.08
2023-04-21T10:02:21.870Z,37.04
2023-04-21T10:03:22.620Z,36.97
2023-04-21T10:04:22.113Z,36.87
2023-04-21T10:05:22.619Z,36.75
2023-04-21T10:06:22.615Z,36.70
2023-04-21T10:07:22.680Z,36.61
2023-04-21T10:08:21.767Z,36.68
2023-04-21T10:09:21.822Z,36.43
2023-04-21T10:10:22.852Z,36.35
2023-04-21T10:11:22.930Z,36.32
2023-04-21T10:12:21.970Z,36.19
2023-04-21T10:13:22.038Z,36.15
2023-04-21T10:14:23.351Z,36.13
2023-04-21T10:15:22.157Z,35.95
2023-04-21T10:16:23.282Z,35.85
2023-04-21T10:17:22.304Z,35.78
2023-04-21T10:18:23.318Z,35.78
2023-04-21T10:19:22.352Z,35.74
2023-04-21T10:20:22.396Z,35.54
2023-04-21T10:21:22.441Z,35.41
2023-04-21T10:22:22.496Z,35.45
2023-04-21T10:23:23.541Z,35.35
2023-04-21T10:24:22.585Z,35.29
2023-04-21T10:25:23.648Z,35.29
2023-04-21T10:26:22.738Z,35.33
2023-04-21T10:27:22.687Z,35.32
2023-04-21T10:28:23.746Z,35.24
2023-04-21T10:29:22.770Z,35.26
2023-04-21T10:30:23.846Z,35.14
2023-04-21T10:31:23.904Z,35.09
2023-04-21T10:32:23.961Z,34.88
2023-04-21T10:33:23.926Z,34.83
2023-04-21T10:34:23.992Z,34.69
2023-04-21T10:35:22.968Z,34.53
2023-04-21T10:36:23.968Z,34.49
2023-04-21T10:37:24.018Z,34.31
2023-04-21T10:38:24.047Z,34.25
2023-04-21T10:39:24.072Z,34.25
2023-04-21T10:40:36.439Z,34.34
2023-04-21T10:41:24.064Z,34.06
2023-04-21T10:42:24.071Z,32.56
2023-04-21T10:43:24.212Z,32.60
2023-04-21T10:44:24.052Z,33.44
2023-04-21T10:45:24.957Z,33.13
2023-04-21T10:46:24.046Z,31.75
2023-04-21T10:47:24.024Z,32.33
2023-04-21T10:48:23.037Z,32.51
2023-04-21T10:49:23.004Z,32.89
2023-04-21T10:50:24.048Z,32.93
2023-04-21T10:51:22.987Z,33.39
2023-04-21T10:52:23.982Z,33.39
2023-04-21T10:53:23.981Z,33.51
2023-04-21T10:54:22.975Z,33.39
2023-04-21T10:55:22.967Z,32.91
2023-04-21T10:56:23.965Z,33.39
2023-04-21T10:57:23.032Z,33.27
2023-04-21T10:58:24.072Z,33.42
2023-04-21T10:59:23.089Z,33.34
2023-04-21T11:00:24.139Z,33.23
2023-04-21T11:01:23.247Z,33.58
2023-04-21T11:02:24.366Z,33.63
2023-04-21T11:03:23.347Z,33.58
2023-04-21T11:04:24.859Z,33.15
2023-04-21T11:05:24.310Z,33.61
2023-04-21T11:06:23.321Z,33.55
2023-04-21T11:07:24.374Z,33.52
2023-04-21T11:08:24.396Z,33.39
2023-04-21T11:09:23.408Z,33.39
2023-04-21T11:10:23.439Z,33.40
2023-04-21T11:11:23.568Z,33.16
2023-04-21T11:12:24.488Z,32.44
2023-04-21T11:13:24.530Z,32.91
2023-04-21T11:14:23.541Z,33.02
2023-04-21T11:15:24.612Z,32.24
2023-04-21T11:16:23.652Z,32.77
2023-04-21T11:17:23.686Z,32.46
2023-04-21T11:18:24.656Z,32.62
2023-04-21T11:19:23.706Z,32.87
2023-04-21T11:20:23.729Z,31.67
2023-04-21T11:21:24.838Z,32.35
2023-04-21T11:22:24.774Z,31.90
2023-04-21T11:23:24.788Z,32.19
2023-04-21T11:24:23.810Z,31.85
2023-04-21T11:25:24.821Z,31.89
2023-04-21T11:26:23.836Z,31.94
2023-04-21T11:27:23.871Z,31.77
2023-04-21T11:28:24.875Z,31.16
2023-04-21T11:29:24.872Z,31.63
2023-04-21T11:30:24.905Z,31.39
2023-04-21T11:31:24.971Z,31.76
2023-04-21T11:32:24.973Z,31.60
2023-04-21T11:33:24.928Z,31.05
2023-04-21T11:34:24.947Z,31.66
2023-04-21T11:35:24.961Z,31.45
2023-04-21T11:36:23.995Z,31.31
2023-04-21T11:37:24.020Z,31.56
2023-04-21T11:38:24.220Z,31.75
2023-04-21T11:39:24.058Z,31.63
2023-04-21T11:40:25.080Z,31.67
2023-04-21T11:41:24.065Z,31.71
2023-04-21T11:42:24.055Z,31.83
2023-04-21T11:43:24.094Z,31.88
2023-04-21T11:44:25.063Z,31.81
2023-04-21T11:45:25.065Z,31.91
2023-04-21T11:46:25.115Z,32.01
2023-04-21T11:47:24.148Z,32.13
2023-04-21T11:48:25.074Z,32.15
2023-04-21T11:49:25.075Z,32.28
2023-04-21T11:50:24.068Z,32.29
2023-04-21T11:51:24.078Z,32.33
2023-04-21T11:52:25.111Z,32.35
2023-04-21T11:53:24.085Z,32.43
2023-04-21T11:54:24.097Z,32.42
2023-04-21T11:55:24.103Z,32.43
2023-04-21T11:56:24.113Z,32.50
2023-04-21T11:57:25.098Z,32.56
2023-04-21T11:58:25.116Z,32.55
2023-04-21T11:59:26.001Z,32.55
2023-04-21T12:00:24.109Z,32.51
2023-04-21T12:01:24.099Z,32.48
2023-04-21T12:02:24.302Z,32.52
2023-04-21T12:03:24.315Z,32.60
2023-04-21T12:04:24.249Z,32.63
2023-04-21T12:05:24.209Z,32.64
2023-04-21T12:06:24.238Z,32.64
2023-04-21T12:07:24.156Z,32.68
2023-04-21T12:08:25.210Z,32.69
2023-04-21T12:09:25.176Z,32.74
2023-04-21T12:10:25.169Z,32.81
2023-04-21T12:11:25.167Z,32.85
2023-04-21T12:12:24.162Z,32.93
2023-04-21T12:13:24.224Z,32.95
2023-04-21T12:14:24.161Z,32.95
2023-04-21T12:15:25.146Z,32.88
2023-04-21T12:16:24.179Z,33.07
2023-04-21T12:17:24.217Z,33.03
2023-04-21T12:18:24.199Z,33.06
2023-04-21T12:19:25.195Z,33.10
2023-04-21T12:20:24.203Z,33.13
2023-04-21T12:21:24.203Z,33.28
2023-04-21T12:22:25.196Z,33.24
2023-04-21T12:23:24.221Z,33.26
2023-04-21T12:24:25.251Z,30.54
2023-04-21T12:25:24.259Z,29.63
2023-04-21T12:26:24.300Z,29.58
2023-04-21T12:27:25.344Z,29.41
2023-04-21T12:28:25.415Z,30.12
2023-04-21T12:29:25.487Z,29.41
2023-04-21T12:30:24.516Z,30.79
2023-04-21T12:31:24.600Z,30.53
2023-04-21T12:32:25.689Z,30.90
2023-04-21T12:33:25.900Z,31.18
2023-04-21T12:34:25.761Z,30.69
2023-04-21T12:35:24.811Z,31.07
2023-04-21T12:36:24.836Z,31.27
2023-04-21T12:37:25.956Z,30.96
2023-04-21T12:38:26.221Z,31.00
2023-04-21T12:39:24.971Z,30.77
2023-04-21T12:40:26.036Z,30.58
2023-04-21T12:41:26.029Z,30.75
2023-04-21T12:42:26.068Z,30.84
2023-04-21T12:43:25.099Z,30.81
2023-04-21T12:44:25.116Z,30.73
2023-04-21T12:45:25.251Z,30.84
2023-04-21T12:46:26.303Z,30.91
2023-04-21T12:47:26.227Z,30.90
2023-04-21T12:48:25.231Z,30.76
2023-04-21T12:49:26.260Z,30.69
2023-04-21T12:50:26.262Z,30.85
2023-04-21T12:51:26.280Z,30.76
2023-04-21T12:52:26.304Z,30.86
2023-04-21T12:53:25.330Z,30.94